Monday, July 28, 2014
04:21 UTC
  |  Log In   |  Register Free
Airport Search:

Alpena County Regional Airport
(KAPN)

Alpena County Regional Airport Diagram
No Airport Diagram Available

FAA data valid effective July 24, 2014 until September 18, 2014 (unless otherwise noted).

 
 
 
 
 
 
 
 
 
 
 
 
 
 

Current Aviation Weather for Alpena County Regional Airport (KAPN)

The most recent METAR observation for KAPN was updated at: 0254 UTC
METAR Summary (Translated METAR)
KAPN
280254Z AUTO 33005KT 10SM OVC049 17/16 A2977 RMK AO2 SLP082 60001 T01720156 53016
KPZQ
(22.4 nm NW from KAPN)
280335Z AUTO 34007KT 10SM OVC055 18/15 A2982 RMK AO2 T01750148
TAF Summary (Translated TAF)
KAPN
280159Z 2802/2824 34009KT P6SM BKN035 FM281200 01011G20KT P6SM SCT040
  Airport Weather Conditions for KAPN

 Current Weather at APN
63° F
Overcast
North winds at 10.4 mph
APN NOAA Radar

Pressure: 29.79 in
Humidity: 84%
Wind: North at 10.4 MPH (9 KT)
Dew Point: 57.9°F
Visibility: 10.00 mi


Airport Weather Forecast for KAPN

Translated METAR and TAF for KAPN
Translated METAR for KAPN (0414 UTC 28 July 2014)
found at http://aviationweather.gov/adds/metars/
 
METAR text: KAPN 280354Z AUTO 34009KT 10SM OVC055 17/14 A2979 RMK AO2 SLP085 T01720144
Conditions at: KAPN (ALPENA , MI, US) observed 0354 UTC 28 July 2014
Temperature: 17.2°C (63°F)
Dewpoint: 14.4°C (58°F) [RH = 84%]
Pressure (altimeter): 29.79 inches Hg (1008.9 mb)
[Sea-level pressure: 1008.5 mb]
Winds: from the NNW (340 degrees) at 10 MPH (9 knots; 4.7 m/s)
Visibility: 10 or more miles (16+ km)
Ceiling: 5500 feet AGL
Clouds: overcast cloud deck at 5500 feet AGL
Weather: automated observation with no human augmentation;
there may or may not be significant weather present at this time
Translated TAF for KAPN
Forecast for: KAPN (ALPENA , MI, US)
TAF Text: KAPN 280159Z 2802/2824 34009KT P6SM BKN035
Forecast period: 0200 to 1200 UTC 28 July 2014
Forecast type: FROM: standard forecast or significant change
Winds: from the NNW (340 degrees) at 10 MPH (9 knots; 4.7 m/s)
Visibility: 6 or more miles (10+ km)
Ceiling: 3500 feet AGL
Clouds: broken clouds at 3500 feet AGL
Weather: no significant weather forecast for this period
TAF Text: FM281200 01011G20KT P6SM SCT040
Forecast period: 1200 UTC 28 July 2014 to 0000 UTC 29 July 2014
Forecast type: FROM: standard forecast or significant change
Winds: from the N (10 degrees) at 13 MPH (11 knots; 5.7 m/s)
gusting to 23 MPH (20 knots; 10.4 m/s)
Visibility: 6 or more miles (10+ km)
Clouds: scattered clouds at 4000 feet AGL
Weather: no significant weather forecast for this period

Find All Airport Services Find A Hotel Find A Rental Car Find A Golf Course Find A Restaurant $100 Hamburger



FBO's on the Field
FBO Company Facility Photos Services Transportation Aviation Fuel Prices: Prices include tax
Catering Weather Repair Courtesy Rental Type 100LL JetA JetA+ MOGAS 8087
 
Aviation Express Inc.

This FBO has not yet been rated
FS:Shell
Last Updated: Jul-02
Login to update fuel prices
SS:
Contact Aviation Express Inc.More FBO Information
 
Aviation North

This FBO has not yet been rated
FS:Avfuel
Last Updated: Jun-30
Login to update fuel prices
SS:
Contact Aviation NorthMore FBO Information
 
Add another FBO Facility Photos Catering Weather Repair Courtesy Rental Type 100LL JetA JetA+ MOGAS 8087
Services Transportation Aviation Fuel Prices: Prices include tax


GlobalAir.com Airport Resource Center model-print
model-print
model-print
model-print